Inspiration — C6FM5 — position and weather

sailwx.info

Track history (hours):
 
Tides and Currents Weather Stations Pressure Air Temp Water Temp Dewpoint Dewpoint Depression Visibility Wind Speed Wind Dir Waves Ship Positions

Inspiration

Operator: Carnival Cruise Lines

Last reported at 2019-Feb-23 23:16 UTC. Time now 2019-Feb-24 00:23 UTC.
Position N 31°45' W 117°24'.

Type: Ship. MMSI: 309484000.

Date/timePositionNaut miles runAvg speedWind from/ knotsBaromVisibWave heightAir tempDewpointWater temp
2019-Feb-23 23:16N 31°45' W 117°24'8 9.3
2019-Feb-23 22:24N 31°43' W 117°33'23 4.2
2019-Feb-23 17:00N 31°42' W 118°00'913.4 080 / 71028.310.8 13.0 7.415.0
2019-Feb-23 16:18N 31°51' W 118°02'410.2
2019-Feb-23 15:56N 31°55' W 118°02'410.2
2019-Feb-23 15:30N 31°59' W 118°01'510.3
2019-Feb-23 15:01N 32°04' W 117°60'510.2
2019-Feb-23 14:30N 32°09' W 117°59'510.2
2019-Feb-23 14:00N 32°14' W 117°58'4 7.6
2019-Feb-23 13:30N 32°18' W 117°56'4 7.3
2019-Feb-23 13:00N 32°21' W 117°55'4 7.3
2019-Feb-23 12:30N 32°25' W 117°53'4 7.5
2019-Feb-23 12:00N 32°28' W 117°51'4 8.7
2019-Feb-23 11:31N 32°32' W 117°49'4 7.0
2019-Feb-23 11:00N 32°35' W 117°48'3 6.6
2019-Feb-23 10:30N 32°39' W 117°48'4 7.2
2019-Feb-23 10:00N 32°42' W 117°51'4 7.2
2019-Feb-23 09:30N 32°45' W 117°53'4 7.4
2019-Feb-23 09:00N 32°48' W 117°54'4 7.6
2019-Feb-23 08:30N 32°52' W 117°55'4 7.5
2019-Feb-23 08:00N 32°56' W 117°56'4 7.4
2019-Feb-23 07:30N 32°59' W 117°57'4 7.4
2019-Feb-23 07:01N 33°03' W 117°59'3208.8
2019-Feb-23 07:00N 33°06' W 118°00'0 0.4 270 / 71023.310.8 13.0 7.415.0
2019-Feb-23 06:30N 33°06' W 118°00'4 7.8
2019-Feb-23 06:00N 33°10' W 118°02'510.9
2019-Feb-23 05:30N 33°15' W 118°04'611.3
2019-Feb-23 05:00N 33°20' W 118°07'611.6
2019-Feb-23 04:30N 33°26' W 118°09'611.7
2019-Feb-23 04:00N 33°31' W 118°11'611.2
2019-Feb-23 03:30N 33°37' W 118°13'510.1
2019-Feb-23 03:00N 33°42' W 118°12'3 6.8
2019-Feb-23 02:30N 33°45' W 118°11'0 0.0
2019-Feb-23 01:54N 33°45' W 118°11'0 0.0
2019-Feb-23 01:27N 33°45' W 118°11'0 0.0
2019-Feb-23 00:45N 33°45' W 118°11'0 0.0
2019-Feb-23 00:30N 33°45' W 118°11'0 0.0
2019-Feb-22 23:57N 33°45' W 118°11'0 0.0
2019-Feb-22 23:27N 33°45' W 118°11'0 0.0
2019-Feb-22 22:54N 33°45' W 118°11'0 0.0
2019-Feb-22 22:30N 33°45' W 118°11'0 0.0
2019-Feb-22 22:00N 33°45' W 118°11'0 0.0
2019-Feb-22 21:30N 33°45' W 118°11'0 0.0
2019-Feb-22 21:00N 33°45' W 118°11'0 0.0
2019-Feb-22 20:30N 33°45' W 118°11'0 0.0
2019-Feb-22 20:00N 33°45' W 118°11'0 0.0
2019-Feb-22 19:27N 33°45' W 118°11'0 0.0
2019-Feb-22 19:00N 33°45' W 118°11'0 0.0
2019-Feb-22 18:27N 33°45' W 118°11'0 0.0
2019-Feb-22 18:00N 33°45' W 118°11'0 0.0
2019-Feb-22 17:30N 33°45' W 118°11'0 0.0
2019-Feb-22 17:00N 33°45' W 118°11'0 0.0
2019-Feb-22 16:30N 33°45' W 118°11'0 0.0
2019-Feb-22 16:00N 33°45' W 118°11'0 0.0
2019-Feb-22 15:27N 33°45' W 118°11'0 0.0
2019-Feb-22 14:57N 33°45' W 118°11'0 0.0
2019-Feb-22 14:30N 33°45' W 118°11'0 0.0
2019-Feb-22 13:54N 33°45' W 118°11'0 0.2
2019-Feb-22 13:30N 33°45' W 118°11'1 2.0
2019-Feb-22 13:00N 33°44' W 118°11'4 9.0
2019-Feb-22 12:30N 33°40' W 118°11'4 7.9
2019-Feb-22 12:00N 33°36' W 118°10'4 7.4
2019-Feb-22 11:29N 33°32' W 118°08'4 7.4
2019-Feb-22 11:00N 33°29' W 118°07'5371.2
2019-Feb-22 11:00N 33°24' W 118°06'1 3.0 320 / 111010.210.8 11.0 5.015.0
2019-Feb-22 10:30N 33°25' W 118°05'4 7.4
2019-Feb-22 09:59N 33°22' W 118°04'4 7.7
2019-Feb-22 09:30N 33°18' W 118°02'3 7.1
2019-Feb-22 09:00N 33°15' W 118°01'4 7.6
2019-Feb-22 08:30N 33°11' W 117°59'4 7.4
2019-Feb-22 08:00N 33°08' W 117°58'3 6.9
2019-Feb-22 07:30N 33°05' W 117°56'4 7.0
2019-Feb-22 07:00N 33°01' W 117°55'4 7.3
2019-Feb-22 06:30N 32°58' W 117°53'3 6.2
2019-Feb-22 06:00N 32°56' W 117°51'4 7.8
2019-Feb-22 05:31N 32°55' W 117°46'5 9.0
2019-Feb-22 05:00N 32°59' W 117°49'612.9
2019-Feb-22 04:31N 33°01' W 117°57'713.3
2019-Feb-22 04:00N 32°54' W 117°58'7398.8
2019-Feb-22 04:00N 33°00' W 117°54'1123.8 020 / 111008.2 12.0 6.215.0
2019-Feb-22 03:30N 32°49' W 117°55'612.8
2019-Feb-22 03:00N 32°43' W 117°51'612.6
2019-Feb-22 02:30N 32°37' W 117°48'612.4
2019-Feb-22 02:00N 32°33' W 117°42'612.2
2019-Feb-22 01:30N 32°29' W 117°37'510.8
2019-Feb-22 01:00N 32°23' W 117°37'4 7.6
2019-Feb-22 00:30N 32°20' W 117°35'4 7.4
2019-Feb-22 00:00N 32°17' W 117°32'5 7.2
2019-Feb-21 23:15N 32°13' W 117°28'2 6.7
2019-Feb-21 22:59N 32°11' W 117°27'6 7.3
2019-Feb-21 22:14N 32°08' W 117°22'2 4.9
2019-Feb-21 21:46N 32°05' W 117°22'3 9.5
2019-Feb-21 21:27N 32°07' W 117°24'5 8.6
2019-Feb-21 20:50N 32°11' W 117°29'3 7.8
2019-Feb-21 20:30N 32°12' W 117°32'4 7.6
2019-Feb-21 20:00N 32°14' W 117°35'4 7.4
2019-Feb-21 19:30N 32°17' W 117°39'4 7.3
2019-Feb-21 19:00N 32°19' W 117°42'4 7.5
2019-Feb-21 18:30N 32°21' W 117°46'3 6.9
2019-Feb-21 18:00N 32°21' W 117°50'4 8.2
2019-Feb-21 17:30N 32°21' W 117°55'1 2.7
2019-Feb-21 16:59N 32°19' W 117°55'3 7.4
2019-Feb-21 16:30N 32°19' W 117°51'4 7.4
2019-Feb-21 16:00N 32°19' W 117°46'4 7.6
2019-Feb-21 15:30N 32°19' W 117°42'4 7.6
2019-Feb-21 15:00N 32°19' W 117°37'3 6.5
2019-Feb-21 14:30N 32°22' W 117°35'4 8.8
2019-Feb-21 14:01N 32°25' W 117°38'4 8.8
2019-Feb-21 13:30N 32°29' W 117°40'4 8.9
2019-Feb-21 13:00N 32°33' W 117°43'2 3.7
2019-Feb-21 12:30N 32°35' W 117°43'4 7.2
2019-Feb-21 12:00N 32°31' W 117°41'4 7.4
2019-Feb-21 11:30N 32°28' W 117°39'4 7.7
2019-Feb-21 11:00N 32°25' W 117°37'4 7.2
2019-Feb-21 10:30N 32°21' W 117°36'4 7.6
2019-Feb-21 10:00N 32°18' W 117°34'3192.0
2019-Feb-21 10:00N 32°18' W 117°30'3 6.0 270 / 281010.210.8 13.0 7.415.0
2019-Feb-21 09:30N 32°15' W 117°31'11 7.3
2019-Feb-21 08:03N 32°08' W 117°22'24 7.8
2019-Feb-21 05:00N 31°48' W 117°06'27 1.4 270 / 181013.210.8 13.0 7.415.0
2019-Feb-20 09:00N 32°06' W 117°30'5135.4 090 / 51023.310.8 12.0 8.316.0
2019-Feb-20 08:57N 32°10' W 117°34'4 9.3
2019-Feb-20 08:31N 32°14' W 117°36'5 9.0
2019-Feb-20 08:00N 32°18' W 117°38'4 8.8
2019-Feb-20 07:31N 32°22' W 117°41'4 8.8
2019-Feb-20 07:00N 32°26' W 117°43'4 9.0
2019-Feb-20 06:30N 32°30' W 117°45'4 8.9
2019-Feb-20 06:00N 32°34' W 117°48'5 9.0
2019-Feb-20 05:30N 32°38' W 117°50'5 9.2
2019-Feb-20 05:01N 32°42' W 117°53'5 9.3
2019-Feb-20 04:31N 32°46' W 117°54'5 9.4
2019-Feb-20 04:00N 32°50' W 117°57'9526.7
2019-Feb-20 04:00N 32°42' W 117°54'1919.0 220 / 81023.3 13.0 7.415.0
2019-Feb-20 03:00N 32°59' W 118°03'611.3
2019-Feb-20 02:30N 33°04' W 118°06'611.2
2019-Feb-20 02:00N 33°09' W 118°09'611.2
2019-Feb-20 01:30N 33°14' W 118°12'611.2
2019-Feb-20 01:00N 33°19' W 118°16'3 6.3
2019-Feb-20 00:27N 33°21' W 118°19'0 0.0
2019-Feb-19 23:21N 33°21' W 118°19'0 0.0
2019-Feb-19 22:21N 33°21' W 118°19'0 0.0
2019-Feb-19 21:54N 33°21' W 118°19'0 0.0
2019-Feb-19 21:27N 33°21' W 118°19'0 0.0
2019-Feb-19 20:57N 33°21' W 118°19'0 0.0
2019-Feb-19 20:30N 33°21' W 118°19'0 0.0
2019-Feb-19 19:54N 33°21' W 118°19'0 0.0
2019-Feb-19 19:27N 33°21' W 118°19'0 0.0
2019-Feb-19 18:54N 33°21' W 118°19'0 0.0
2019-Feb-19 18:27N 33°21' W 118°19'0 0.0
2019-Feb-19 17:57N 33°21' W 118°19'0 0.1
2019-Feb-19 17:27N 33°21' W 118°19'0 0.0
2019-Feb-19 16:45N 33°21' W 118°19'0 0.0
2019-Feb-19 16:24N 33°21' W 118°19'0 0.0
2019-Feb-19 15:57N 33°21' W 118°19'0 0.0
2019-Feb-19 15:30N 33°21' W 118°19'0 0.1
2019-Feb-19 15:00N 33°21' W 118°19'2 3.3
2019-Feb-19 14:31N 33°20' W 118°17'4 7.5
2019-Feb-19 14:01N 33°16' W 118°16'3 7.0
2019-Feb-19 13:30N 33°13' W 118°15'4 7.6
2019-Feb-19 12:59N 33°09' W 118°14'5 7.2
2019-Feb-19 12:20N 33°05' W 118°12'3 6.8
2019-Feb-19 11:57N 33°03' W 118°10'4 7.2
2019-Feb-19 11:27N 33°00' W 118°07'3 7.6
2019-Feb-19 11:00N 32°58' W 118°05'4 7.5
2019-Feb-19 10:30N 32°54' W 118°03'4 7.3
2019-Feb-19 10:00N 32°51' W 118°01'3 6.3
2019-Feb-19 09:30N 32°49' W 117°58'3 6.9
2019-Feb-19 09:01N 32°50' W 117°54'3 6.9
2019-Feb-19 08:30N 32°53' W 117°54'4 7.3
2019-Feb-19 08:01N 32°57' W 117°56'4 7.3
2019-Feb-19 07:30N 33°00' W 117°57'4 7.7
2019-Feb-19 07:01N 33°04' W 117°59'4 7.8
2019-Feb-19 06:30N 33°07' W 118°01'4 8.9
2019-Feb-19 06:00N 33°12' W 118°03'510.8
2019-Feb-19 05:31N 33°17' W 118°05'611.0
2019-Feb-19 05:00N 33°22' W 118°07'2161.3
2019-Feb-19 05:00N 33°24' W 118°06'4 8.7 020 / 121020.310.8 14.0 8.515.0
2019-Feb-19 04:30N 33°27' W 118°10'611.1
2019-Feb-19 04:01N 33°32' W 118°12'510.6
2019-Feb-19 03:30N 33°38' W 118°13'510.4
2019-Feb-19 03:00N 33°43' W 118°11'2 5.0
2019-Feb-19 02:30N 33°45' W 118°11'0 0.0
2019-Feb-19 02:00N 33°45' W 118°11'0 0.0
2019-Feb-19 01:27N 33°45' W 118°11'0 0.0
2019-Feb-19 01:00N 33°45' W 118°11'0 0.0
2019-Feb-19 00:30N 33°45' W 118°11'0 0.0
2019-Feb-18 23:57N 33°45' W 118°11'0 0.0
2019-Feb-18 23:27N 33°45' W 118°11'0 0.0
2019-Feb-18 22:51N 33°45' W 118°11'0 0.0
2019-Feb-18 22:21N 33°45' W 118°11'0 0.0
2019-Feb-18 22:00N 33°45' W 118°11'0 0.0
2019-Feb-18 21:27N 33°45' W 118°11'0 0.0
2019-Feb-18 20:57N 33°45' W 118°11'0 0.0
2019-Feb-18 20:30N 33°45' W 118°11'0 0.0
2019-Feb-18 20:00N 33°45' W 118°11'0 0.0
2019-Feb-18 19:30N 33°45' W 118°11'0 0.0
2019-Feb-18 18:54N 33°45' W 118°11'0 0.0
2019-Feb-18 18:30N 33°45' W 118°11'0 0.0
2019-Feb-18 17:54N 33°45' W 118°11'0 0.0
2019-Feb-18 17:27N 33°45' W 118°11'0 0.0
2019-Feb-18 17:00N 33°45' W 118°11'0 0.0
2019-Feb-18 16:24N 33°45' W 118°11'0 0.0
2019-Feb-18 16:00N 33°45' W 118°11'0 0.0
2019-Feb-18 14:57N 33°45' W 118°11'0 0.0
2019-Feb-18 14:30N 33°45' W 118°11'0 0.0
2019-Feb-18 14:00N 33°45' W 118°11'0 0.1
2019-Feb-18 13:30N 33°45' W 118°11'1 1.7
2019-Feb-18 13:00N 33°44' W 118°11'5 9.2
2019-Feb-18 12:30N 33°40' W 118°11'5 9.0
2019-Feb-18 12:00N 33°35' W 118°09'4 9.0
2019-Feb-18 11:30N 33°31' W 118°07'918.3
2019-Feb-18 11:00N 33°24' W 118°00'426.7 330 / 201021.310.8 11.0 7.215.0
2019-Feb-18 10:51N 33°21' W 118°03'616.6
2019-Feb-18 10:30N 33°16' W 118°01'816.4
2019-Feb-18 10:00N 33°08' W 117°59'816.1
2019-Feb-18 09:30N 32°60' W 117°57'815.9
2019-Feb-18 09:00N 32°52' W 117°54'6385.5
2019-Feb-18 09:00N 32°48' W 117°48'3 6.0 290 / 361021.310.8 13.0 7.415.0
2019-Feb-18 08:31N 32°45' W 117°49'815.7
2019-Feb-18 08:00N 32°38' W 117°45'815.8
2019-Feb-18 07:31N 32°31' W 117°41'815.9
2019-Feb-18 07:00N 32°24' W 117°37'815.7
2019-Feb-18 06:31N 32°17' W 117°33'915.8
2019-Feb-18 05:56N 32°10' W 117°26'915.8
2019-Feb-18 05:22N 32°05' W 117°17'1128.3
2019-Feb-18 05:00N 32°00' W 117°06'18 0.6 290 / 271021.310.8 13.0 7.415.0
2019-Feb-16 21:00N 31°42' W 117°06'13 3.3 300 / 361023.310.8 14.0 6.416.0
2019-Feb-16 17:00N 31°54' W 117°12'18 9.4 300 / 251025.310.8 14.0 8.515.0
2019-Feb-16 15:05N 32°08' W 117°26'4 9.7
2019-Feb-16 14:38N 32°11' W 117°29'2 9.4
2019-Feb-16 14:25N 32°13' W 117°30'4 9.2
2019-Feb-16 14:00N 32°16' W 117°32'4 8.2
2019-Feb-16 13:30N 32°20' W 117°35'4 7.8
2019-Feb-16 13:01N 32°23' W 117°37'4 7.8
2019-Feb-16 12:30N 32°27' W 117°39'4 7.6
2019-Feb-16 12:01N 32°30' W 117°41'4 7.7
2019-Feb-16 11:31N 32°33' W 117°43'4 7.8
2019-Feb-16 11:01N 32°37' W 117°45'4 7.7
2019-Feb-16 10:30N 32°41' W 117°47'4 7.6
2019-Feb-16 10:01N 32°44' W 117°49'4 7.8
2019-Feb-16 09:30N 32°48' W 117°50'4 8.7
2019-Feb-16 09:00N 32°52' W 117°52'4 7.6
2019-Feb-16 08:30N 32°55' W 117°54'4 7.5
2019-Feb-16 08:00N 32°59' W 117°55'3 6.5
2019-Feb-16 07:31N 33°02' W 117°57'3 6.8
2019-Feb-16 07:00N 33°05' W 117°59'3 6.6
2019-Feb-16 06:30N 33°08' W 118°00'4 7.8
2019-Feb-16 06:00N 33°11' W 118°02'510.8
2019-Feb-16 05:30N 33°16' W 118°05'510.6
2019-Feb-16 05:00N 33°21' W 118°07'3234.5
2019-Feb-16 05:00N 33°18' W 118°06'918.1 250 / 131021.310.8 14.010.515.0
2019-Feb-16 04:30N 33°26' W 118°09'510.8
2019-Feb-16 04:00N 33°31' W 118°12'510.4
2019-Feb-16 03:30N 33°37' W 118°13'510.0
2019-Feb-16 03:00N 33°41' W 118°11'4 7.4
2019-Feb-16 02:30N 33°45' W 118°11'0 0.1
2019-Feb-16 01:57N 33°45' W 118°11'0 0.0
2019-Feb-16 01:30N 33°45' W 118°11'0 0.0
2019-Feb-16 00:57N 33°45' W 118°11'0 0.0
2019-Feb-16 00:24N 33°45' W 118°11'0 0.0
2019-Feb-15 23:57N 33°45' W 118°11'0 0.0
2019-Feb-15 23:24N 33°45' W 118°11'0 0.0
2019-Feb-15 23:00N 33°45' W 118°11'0 0.0
2019-Feb-15 22:30N 33°45' W 118°11'0 0.0
2019-Feb-15 22:00N 33°45' W 118°11'0 0.0
2019-Feb-15 21:27N 33°45' W 118°11'0 0.0
2019-Feb-15 20:57N 33°45' W 118°11'0 0.0
2019-Feb-15 20:12N 33°45' W 118°11'0 0.0
2019-Feb-15 19:57N 33°45' W 118°11'0 0.0
2019-Feb-15 19:30N 33°45' W 118°11'0 0.0
2019-Feb-15 19:00N 33°45' W 118°11'0 0.0
2019-Feb-15 18:30N 33°45' W 118°11'0 0.0
2019-Feb-15 17:57N 33°45' W 118°11'0 0.0
2019-Feb-15 17:30N 33°45' W 118°11'0 0.0
2019-Feb-15 17:01N 33°45' W 118°11'0 0.0
2019-Feb-15 16:24N 33°45' W 118°11'0 0.0
2019-Feb-15 16:00N 33°45' W 118°11'0 0.0
2019-Feb-15 15:30N 33°45' W 118°11'0 0.0
2019-Feb-15 15:00N 33°45' W 118°11'0 0.0
2019-Feb-15 14:30N 33°45' W 118°11'0 0.0
2019-Feb-15 13:54N 33°45' W 118°11'0 0.3
2019-Feb-15 13:30N 33°45' W 118°11'1 2.1
2019-Feb-15 13:00N 33°44' W 118°11'5 9.7
2019-Feb-15 12:30N 33°39' W 118°10'4 7.8
2019-Feb-15 12:00N 33°35' W 118°09'510.5
2019-Feb-15 11:30N 33°30' W 118°07'611.3
2019-Feb-15 11:00N 33°25' W 118°05'610.7
2019-Feb-15 10:27N 33°19' W 118°03'510.7
2019-Feb-15 09:58N 33°15' W 118°01'511.4
2019-Feb-15 09:31N 33°10' W 117°58'611.5
2019-Feb-15 09:00N 33°04' W 117°56'510.3
2019-Feb-15 08:31N 32°59' W 117°55'4 8.0
2019-Feb-15 08:00N 33°01' W 117°59'4 8.9
2019-Feb-15 07:30N 33°05' W 118°02'510.4
2019-Feb-15 07:01N 33°09' W 118°06'611.6
2019-Feb-15 06:31N 33°14' W 118°10'611.7
2019-Feb-15 06:01N 33°19' W 118°11'611.8
2019-Feb-15 05:30N 33°25' W 118°12'5 9.6
2019-Feb-15 05:00N 33°30' W 118°14'3 5.6
2019-Feb-15 04:27N 33°28' W 118°17'3 7.3
2019-Feb-15 04:00N 33°25' W 118°15'6 7.4
2019-Feb-15 03:11N 33°20' W 118°13'1 7.6
2019-Feb-15 03:01N 33°19' W 118°11'4 8.4
2019-Feb-15 02:30N 33°17' W 118°07'4 8.0
2019-Feb-15 02:00N 33°16' W 118°02'4 7.8
2019-Feb-15 01:30N 33°14' W 117°58'4 7.9
2019-Feb-15 01:00N 33°13' W 117°53'4 7.6
2019-Feb-15 00:31N 33°11' W 117°49'4 7.1
2019-Feb-15 00:00N 33°08' W 117°47'4 7.6
2019-Feb-14 23:31N 33°05' W 117°46'4 8.6
2019-Feb-14 23:00N 33°01' W 117°44'4 8.7
2019-Feb-14 22:30N 32°56' W 117°42'4 8.7
2019-Feb-14 22:00N 32°52' W 117°41'4 8.5
2019-Feb-14 21:30N 32°48' W 117°40'2 4.1
2019-Feb-14 21:00N 32°47' W 117°37'1133.9
2019-Feb-14 21:00N 32°48' W 117°36'4 8.2 270 / 361013.2 5.4 15.015.016.0
2019-Feb-14 20:30N 32°52' W 117°38'4 7.9
2019-Feb-14 20:00N 32°55' W 117°39'4 7.6
2019-Feb-14 19:30N 32°59' W 117°41'4 7.2
2019-Feb-14 19:01N 33°02' W 117°42'4 7.3
2019-Feb-14 18:30N 33°06' W 117°44'2 5.0
2019-Feb-14 18:01N 33°05' W 117°46'4 8.4
2019-Feb-14 17:30N 33°00' W 117°45'4 8.3
2019-Feb-14 17:01N 32°56' W 117°44'3182.9
2019-Feb-14 17:00N 32°54' W 117°42'2 4.7 200 / 261013.2 5.4 15.015.016.0
2019-Feb-14 16:30N 32°52' W 117°44'4 8.9
2019-Feb-14 16:00N 32°48' W 117°43'4 8.9
2019-Feb-14 15:31N 32°43' W 117°42'5 8.9
2019-Feb-14 15:00N 32°39' W 117°41'4 8.8
2019-Feb-14 14:30N 32°35' W 117°40'4 8.9
2019-Feb-14 14:00N 32°30' W 117°39'5 9.2
2019-Feb-14 13:30N 32°26' W 117°39'2 4.4
2019-Feb-14 13:00N 32°24' W 117°37'3 7.0
2019-Feb-14 12:30N 32°27' W 117°38'3 7.0
2019-Feb-14 12:01N 32°30' W 117°39'3 6.8
2019-Feb-14 11:30N 32°34' W 117°41'2 4.5
2019-Feb-14 11:00N 32°35' W 117°43'4 7.7
2019-Feb-14 10:31N 32°31' W 117°42'5 9.1
2019-Feb-14 10:00N 32°27' W 117°39'4255.9
2019-Feb-14 10:00N 32°24' W 117°36'1 1.8 180 / 351014.2 5.4 15.013.315.0
2019-Feb-14 09:31N 32°23' W 117°37'4 8.4
2019-Feb-14 09:01N 32°20' W 117°35'4244.4
2019-Feb-14 09:00N 32°18' W 117°30'3 5.2 160 / 301014.2 5.4 15.013.316.0
2019-Feb-14 08:29N 32°16' W 117°32'8 8.1
2019-Feb-14 07:33N 32°10' W 117°26'814.3
2019-Feb-14 07:00N 32°06' W 117°18'   160 / 331019.310.8 15.013.316.0
Track history (hours):
 
Tides and Currents Weather Stations Pressure Air Temp Water Temp Dewpoint Dewpoint Depression Visibility Wind Speed Wind Dir Waves Ship Positions

Inspiration

Operator: Carnival Cruise Lines

Last reported at 2019-Feb-23 23:16 UTC. Time now 2019-Feb-24 00:23 UTC.
Position N 31°45' W 117°24'.

Type: Ship. MMSI: 309484000.

Date/timePositionNaut miles runAvg speedWind from/ knotsBaromVisibWave heightAir tempDewpointWater temp
2019-Feb-23 23:16N 31°45' W 117°24'8 9.3
2019-Feb-23 22:24N 31°43' W 117°33'23 4.2
2019-Feb-23 17:00N 31°42' W 118°00'913.4 080 / 71028.310.8 13.0 7.415.0
2019-Feb-23 16:18N 31°51' W 118°02'410.2
2019-Feb-23 15:56N 31°55' W 118°02'410.2
2019-Feb-23 15:30N 31°59' W 118°01'510.3
2019-Feb-23 15:01N 32°04' W 117°60'510.2
2019-Feb-23 14:30N 32°09' W 117°59'510.2
2019-Feb-23 14:00N 32°14' W 117°58'4 7.6
2019-Feb-23 13:30N 32°18' W 117°56'4 7.3
2019-Feb-23 13:00N 32°21' W 117°55'4 7.3
2019-Feb-23 12:30N 32°25' W 117°53'4 7.5
2019-Feb-23 12:00N 32°28' W 117°51'4 8.7
2019-Feb-23 11:31N 32°32' W 117°49'4 7.0
2019-Feb-23 11:00N 32°35' W 117°48'3 6.6
2019-Feb-23 10:30N 32°39' W 117°48'4 7.2
2019-Feb-23 10:00N 32°42' W 117°51'4 7.2
2019-Feb-23 09:30N 32°45' W 117°53'4 7.4
2019-Feb-23 09:00N 32°48' W 117°54'4 7.6
2019-Feb-23 08:30N 32°52' W 117°55'4 7.5
2019-Feb-23 08:00N 32°56' W 117°56'4 7.4
2019-Feb-23 07:30N 32°59' W 117°57'4 7.4
2019-Feb-23 07:01N 33°03' W 117°59'3208.8
2019-Feb-23 07:00N 33°06' W 118°00'0 0.4 270 / 71023.310.8 13.0 7.415.0
2019-Feb-23 06:30N 33°06' W 118°00'4 7.8
2019-Feb-23 06:00N 33°10' W 118°02'510.9
2019-Feb-23 05:30N 33°15' W 118°04'611.3
2019-Feb-23 05:00N 33°20' W 118°07'611.6
2019-Feb-23 04:30N 33°26' W 118°09'611.7
2019-Feb-23 04:00N 33°31' W 118°11'611.2
2019-Feb-23 03:30N 33°37' W 118°13'510.1
2019-Feb-23 03:00N 33°42' W 118°12'3 6.8
2019-Feb-23 02:30N 33°45' W 118°11'0 0.0
2019-Feb-23 01:54N 33°45' W 118°11'0 0.0
2019-Feb-23 01:27N 33°45' W 118°11'0 0.0
2019-Feb-23 00:45N 33°45' W 118°11'0 0.0
2019-Feb-23 00:30N 33°45' W 118°11'0 0.0
2019-Feb-22 23:57N 33°45' W 118°11'0 0.0
2019-Feb-22 23:27N 33°45' W 118°11'0 0.0
2019-Feb-22 22:54N 33°45' W 118°11'0 0.0
2019-Feb-22 22:30N 33°45' W 118°11'0 0.0
2019-Feb-22 22:00N 33°45' W 118°11'0 0.0
2019-Feb-22 21:30N 33°45' W 118°11'0 0.0
2019-Feb-22 21:00N 33°45' W 118°11'0 0.0
2019-Feb-22 20:30N 33°45' W 118°11'0 0.0
2019-Feb-22 20:00N 33°45' W 118°11'0 0.0
2019-Feb-22 19:27N 33°45' W 118°11'0 0.0
2019-Feb-22 19:00N 33°45' W 118°11'0 0.0
2019-Feb-22 18:27N 33°45' W 118°11'0 0.0
2019-Feb-22 18:00N 33°45' W 118°11'0 0.0
2019-Feb-22 17:30N 33°45' W 118°11'0 0.0
2019-Feb-22 17:00N 33°45' W 118°11'0 0.0
2019-Feb-22 16:30N 33°45' W 118°11'0 0.0
2019-Feb-22 16:00N 33°45' W 118°11'0 0.0
2019-Feb-22 15:27N 33°45' W 118°11'0 0.0
2019-Feb-22 14:57N 33°45' W 118°11'0 0.0
2019-Feb-22 14:30N 33°45' W 118°11'0 0.0
2019-Feb-22 13:54N 33°45' W 118°11'0 0.2
2019-Feb-22 13:30N 33°45' W 118°11'1 2.0
2019-Feb-22 13:00N 33°44' W 118°11'4 9.0
2019-Feb-22 12:30N 33°40' W 118°11'4 7.9
2019-Feb-22 12:00N 33°36' W 118°10'4 7.4
2019-Feb-22 11:29N 33°32' W 118°08'4 7.4
2019-Feb-22 11:00N 33°29' W 118°07'5371.2
2019-Feb-22 11:00N 33°24' W 118°06'1 3.0 320 / 111010.210.8 11.0 5.015.0
2019-Feb-22 10:30N 33°25' W 118°05'4 7.4
2019-Feb-22 09:59N 33°22' W 118°04'4 7.7
2019-Feb-22 09:30N 33°18' W 118°02'3 7.1
2019-Feb-22 09:00N 33°15' W 118°01'4 7.6
2019-Feb-22 08:30N 33°11' W 117°59'4 7.4
2019-Feb-22 08:00N 33°08' W 117°58'3 6.9
2019-Feb-22 07:30N 33°05' W 117°56'4 7.0
2019-Feb-22 07:00N 33°01' W 117°55'4 7.3
2019-Feb-22 06:30N 32°58' W 117°53'3 6.2
2019-Feb-22 06:00N 32°56' W 117°51'4 7.8
2019-Feb-22 05:31N 32°55' W 117°46'5 9.0
2019-Feb-22 05:00N 32°59' W 117°49'612.9
2019-Feb-22 04:31N 33°01' W 117°57'713.3
2019-Feb-22 04:00N 32°54' W 117°58'7398.8
2019-Feb-22 04:00N 33°00' W 117°54'1123.8 020 / 111008.2 12.0 6.215.0
2019-Feb-22 03:30N 32°49' W 117°55'612.8
2019-Feb-22 03:00N 32°43' W 117°51'612.6
2019-Feb-22 02:30N 32°37' W 117°48'612.4
2019-Feb-22 02:00N 32°33' W 117°42'612.2
2019-Feb-22 01:30N 32°29' W 117°37'510.8
2019-Feb-22 01:00N 32°23' W 117°37'4 7.6
2019-Feb-22 00:30N 32°20' W 117°35'4 7.4
2019-Feb-22 00:00N 32°17' W 117°32'5 7.2
2019-Feb-21 23:15N 32°13' W 117°28'2 6.7
2019-Feb-21 22:59N 32°11' W 117°27'6 7.3
2019-Feb-21 22:14N 32°08' W 117°22'2 4.9
2019-Feb-21 21:46N 32°05' W 117°22'3 9.5
2019-Feb-21 21:27N 32°07' W 117°24'5 8.6
2019-Feb-21 20:50N 32°11' W 117°29'3 7.8
2019-Feb-21 20:30N 32°12' W 117°32'4 7.6
2019-Feb-21 20:00N 32°14' W 117°35'4 7.4
2019-Feb-21 19:30N 32°17' W 117°39'4 7.3
2019-Feb-21 19:00N 32°19' W 117°42'4 7.5
2019-Feb-21 18:30N 32°21' W 117°46'3 6.9
2019-Feb-21 18:00N 32°21' W 117°50'4 8.2
2019-Feb-21 17:30N 32°21' W 117°55'1 2.7
2019-Feb-21 16:59N 32°19' W 117°55'3 7.4
2019-Feb-21 16:30N 32°19' W 117°51'4 7.4
2019-Feb-21 16:00N 32°19' W 117°46'4 7.6
2019-Feb-21 15:30N 32°19' W 117°42'4 7.6
2019-Feb-21 15:00N 32°19' W 117°37'3 6.5
2019-Feb-21 14:30N 32°22' W 117°35'4 8.8
2019-Feb-21 14:01N 32°25' W 117°38'4 8.8
2019-Feb-21 13:30N 32°29' W 117°40'4 8.9
2019-Feb-21 13:00N 32°33' W 117°43'2 3.7
2019-Feb-21 12:30N 32°35' W 117°43'4 7.2
2019-Feb-21 12:00N 32°31' W 117°41'4 7.4
2019-Feb-21 11:30N 32°28' W 117°39'4 7.7
2019-Feb-21 11:00N 32°25' W 117°37'4 7.2
2019-Feb-21 10:30N 32°21' W 117°36'4 7.6
2019-Feb-21 10:00N 32°18' W 117°34'3192.0
2019-Feb-21 10:00N 32°18' W 117°30'3 6.0 270 / 281010.210.8 13.0 7.415.0
2019-Feb-21 09:30N 32°15' W 117°31'11 7.3
2019-Feb-21 08:03N 32°08' W 117°22'24 7.8
2019-Feb-21 05:00N 31°48' W 117°06'27 1.4 270 / 181013.210.8 13.0 7.415.0
2019-Feb-20 09:00N 32°06' W 117°30'5135.4 090 / 51023.310.8 12.0 8.316.0
2019-Feb-20 08:57N 32°10' W 117°34'4 9.3
2019-Feb-20 08:31N 32°14' W 117°36'5 9.0
2019-Feb-20 08:00N 32°18' W 117°38'4 8.8
2019-Feb-20 07:31N 32°22' W 117°41'4 8.8
2019-Feb-20 07:00N 32°26' W 117°43'4 9.0
2019-Feb-20 06:30N 32°30' W 117°45'4 8.9
2019-Feb-20 06:00N 32°34' W 117°48'5 9.0
2019-Feb-20 05:30N 32°38' W 117°50'5 9.2
2019-Feb-20 05:01N 32°42' W 117°53'5 9.3
2019-Feb-20 04:31N 32°46' W 117°54'5 9.4
2019-Feb-20 04:00N 32°50' W 117°57'9526.7
2019-Feb-20 04:00N 32°42' W 117°54'1919.0 220 / 81023.3 13.0 7.415.0
2019-Feb-20 03:00N 32°59' W 118°03'611.3
2019-Feb-20 02:30N 33°04' W 118°06'611.2
2019-Feb-20 02:00N 33°09' W 118°09'611.2
2019-Feb-20 01:30N 33°14' W 118°12'611.2
2019-Feb-20 01:00N 33°19' W 118°16'3 6.3
2019-Feb-20 00:27N 33°21' W 118°19'0 0.0
2019-Feb-19 23:21N 33°21' W 118°19'0 0.0
2019-Feb-19 22:21N 33°21' W 118°19'0 0.0
2019-Feb-19 21:54N 33°21' W 118°19'0 0.0
2019-Feb-19 21:27N 33°21' W 118°19'0 0.0
2019-Feb-19 20:57N 33°21' W 118°19'0 0.0
2019-Feb-19 20:30N 33°21' W 118°19'0 0.0
2019-Feb-19 19:54N 33°21' W 118°19'0 0.0
2019-Feb-19 19:27N 33°21' W 118°19'0 0.0
2019-Feb-19 18:54N 33°21' W 118°19'0 0.0
2019-Feb-19 18:27N 33°21' W 118°19'0 0.0
2019-Feb-19 17:57N 33°21' W 118°19'0 0.1
2019-Feb-19 17:27N 33°21' W 118°19'0 0.0
2019-Feb-19 16:45N 33°21' W 118°19'0 0.0
2019-Feb-19 16:24N 33°21' W 118°19'0 0.0
2019-Feb-19 15:57N 33°21' W 118°19'0 0.0
2019-Feb-19 15:30N 33°21' W 118°19'0 0.1
2019-Feb-19 15:00N 33°21' W 118°19'2 3.3
2019-Feb-19 14:31N 33°20' W 118°17'4 7.5
2019-Feb-19 14:01N 33°16' W 118°16'3 7.0
2019-Feb-19 13:30N 33°13' W 118°15'4 7.6
2019-Feb-19 12:59N 33°09' W 118°14'5 7.2
2019-Feb-19 12:20N 33°05' W 118°12'3 6.8
2019-Feb-19 11:57N 33°03' W 118°10'4 7.2
2019-Feb-19 11:27N 33°00' W 118°07'3 7.6
2019-Feb-19 11:00N 32°58' W 118°05'4 7.5
2019-Feb-19 10:30N 32°54' W 118°03'4 7.3
2019-Feb-19 10:00N 32°51' W 118°01'3 6.3
2019-Feb-19 09:30N 32°49' W 117°58'3 6.9
2019-Feb-19 09:01N 32°50' W 117°54'3 6.9
2019-Feb-19 08:30N 32°53' W 117°54'4 7.3
2019-Feb-19 08:01N 32°57' W 117°56'4 7.3
2019-Feb-19 07:30N 33°00' W 117°57'4 7.7
2019-Feb-19 07:01N 33°04' W 117°59'4 7.8
2019-Feb-19 06:30N 33°07' W 118°01'4 8.9
2019-Feb-19 06:00N 33°12' W 118°03'510.8
2019-Feb-19 05:31N 33°17' W 118°05'611.0
2019-Feb-19 05:00N 33°22' W 118°07'2161.3
2019-Feb-19 05:00N 33°24' W 118°06'4 8.7 020 / 121020.310.8 14.0 8.515.0
2019-Feb-19 04:30N 33°27' W 118°10'611.1
2019-Feb-19 04:01N 33°32' W 118°12'510.6
2019-Feb-19 03:30N 33°38' W 118°13'510.4
2019-Feb-19 03:00N 33°43' W 118°11'2 5.0
2019-Feb-19 02:30N 33°45' W 118°11'0 0.0
2019-Feb-19 02:00N 33°45' W 118°11'0 0.0
2019-Feb-19 01:27N 33°45' W 118°11'0 0.0
2019-Feb-19 01:00N 33°45' W 118°11'0 0.0
2019-Feb-19 00:30N 33°45' W 118°11'0 0.0
2019-Feb-18 23:57N 33°45' W 118°11'0 0.0
2019-Feb-18 23:27N 33°45' W 118°11'0 0.0
2019-Feb-18 22:51N 33°45' W 118°11'0 0.0
2019-Feb-18 22:21N 33°45' W 118°11'0 0.0
2019-Feb-18 22:00N 33°45' W 118°11'0 0.0
2019-Feb-18 21:27N 33°45' W 118°11'0 0.0
2019-Feb-18 20:57N 33°45' W 118°11'0 0.0
2019-Feb-18 20:30N 33°45' W 118°11'0 0.0
2019-Feb-18 20:00N 33°45' W 118°11'0 0.0
2019-Feb-18 19:30N 33°45' W 118°11'0 0.0
2019-Feb-18 18:54N 33°45' W 118°11'0 0.0
2019-Feb-18 18:30N 33°45' W 118°11'0 0.0
2019-Feb-18 17:54N 33°45' W 118°11'0 0.0
2019-Feb-18 17:27N 33°45' W 118°11'0 0.0
2019-Feb-18 17:00N 33°45' W 118°11'0 0.0
2019-Feb-18 16:24N 33°45' W 118°11'0 0.0
2019-Feb-18 16:00N 33°45' W 118°11'0 0.0
2019-Feb-18 14:57N 33°45' W 118°11'0 0.0
2019-Feb-18 14:30N 33°45' W 118°11'0 0.0
2019-Feb-18 14:00N 33°45' W 118°11'0 0.1
2019-Feb-18 13:30N 33°45' W 118°11'1 1.7
2019-Feb-18 13:00N 33°44' W 118°11'5 9.2
2019-Feb-18 12:30N 33°40' W 118°11'5 9.0
2019-Feb-18 12:00N 33°35' W 118°09'4 9.0
2019-Feb-18 11:30N 33°31' W 118°07'918.3
2019-Feb-18 11:00N 33°24' W 118°00'426.7 330 / 201021.310.8 11.0 7.215.0
2019-Feb-18 10:51N 33°21' W 118°03'616.6
2019-Feb-18 10:30N 33°16' W 118°01'816.4
2019-Feb-18 10:00N 33°08' W 117°59'816.1
2019-Feb-18 09:30N 32°60' W 117°57'815.9
2019-Feb-18 09:00N 32°52' W 117°54'6385.5
2019-Feb-18 09:00N 32°48' W 117°48'3 6.0 290 / 361021.310.8 13.0 7.415.0
2019-Feb-18 08:31N 32°45' W 117°49'815.7
2019-Feb-18 08:00N 32°38' W 117°45'815.8
2019-Feb-18 07:31N 32°31' W 117°41'815.9
2019-Feb-18 07:00N 32°24' W 117°37'815.7
2019-Feb-18 06:31N 32°17' W 117°33'915.8
2019-Feb-18 05:56N 32°10' W 117°26'915.8
2019-Feb-18 05:22N 32°05' W 117°17'1128.3
2019-Feb-18 05:00N 32°00' W 117°06'18 0.6 290 / 271021.310.8 13.0 7.415.0
2019-Feb-16 21:00N 31°42' W 117°06'13 3.3 300 / 361023.310.8 14.0 6.416.0
2019-Feb-16 17:00N 31°54' W 117°12'18 9.4 300 / 251025.310.8 14.0 8.515.0
2019-Feb-16 15:05N 32°08' W 117°26'4 9.7
2019-Feb-16 14:38N 32°11' W 117°29'2 9.4
2019-Feb-16 14:25N 32°13' W 117°30'4 9.2
2019-Feb-16 14:00N 32°16' W 117°32'4 8.2
2019-Feb-16 13:30N 32°20' W 117°35'4 7.8
2019-Feb-16 13:01N 32°23' W 117°37'4 7.8
2019-Feb-16 12:30N 32°27' W 117°39'4 7.6
2019-Feb-16 12:01N 32°30' W 117°41'4 7.7
2019-Feb-16 11:31N 32°33' W 117°43'4 7.8
2019-Feb-16 11:01N 32°37' W 117°45'4 7.7
2019-Feb-16 10:30N 32°41' W 117°47'4 7.6
2019-Feb-16 10:01N 32°44' W 117°49'4 7.8
2019-Feb-16 09:30N 32°48' W 117°50'4 8.7
2019-Feb-16 09:00N 32°52' W 117°52'4 7.6
2019-Feb-16 08:30N 32°55' W 117°54'4 7.5
2019-Feb-16 08:00N 32°59' W 117°55'3 6.5
2019-Feb-16 07:31N 33°02' W 117°57'3 6.8
2019-Feb-16 07:00N 33°05' W 117°59'3 6.6
2019-Feb-16 06:30N 33°08' W 118°00'4 7.8
2019-Feb-16 06:00N 33°11' W 118°02'510.8
2019-Feb-16 05:30N 33°16' W 118°05'510.6
2019-Feb-16 05:00N 33°21' W 118°07'3234.5
2019-Feb-16 05:00N 33°18' W 118°06'918.1 250 / 131021.310.8 14.010.515.0
2019-Feb-16 04:30N 33°26' W 118°09'510.8
2019-Feb-16 04:00N 33°31' W 118°12'510.4
2019-Feb-16 03:30N 33°37' W 118°13'510.0
2019-Feb-16 03:00N 33°41' W 118°11'4 7.4
2019-Feb-16 02:30N 33°45' W 118°11'0 0.1
2019-Feb-16 01:57N 33°45' W 118°11'0 0.0
2019-Feb-16 01:30N 33°45' W 118°11'0 0.0
2019-Feb-16 00:57N 33°45' W 118°11'0 0.0
2019-Feb-16 00:24N 33°45' W 118°11'0 0.0
2019-Feb-15 23:57N 33°45' W 118°11'0 0.0
2019-Feb-15 23:24N 33°45' W 118°11'0 0.0
2019-Feb-15 23:00N 33°45' W 118°11'0 0.0
2019-Feb-15 22:30N 33°45' W 118°11'0 0.0
2019-Feb-15 22:00N 33°45' W 118°11'0 0.0
2019-Feb-15 21:27N 33°45' W 118°11'0 0.0
2019-Feb-15 20:57N 33°45' W 118°11'0 0.0
2019-Feb-15 20:12N 33°45' W 118°11'0 0.0
2019-Feb-15 19:57N 33°45' W 118°11'0 0.0
2019-Feb-15 19:30N 33°45' W 118°11'0 0.0
2019-Feb-15 19:00N 33°45' W 118°11'0 0.0
2019-Feb-15 18:30N 33°45' W 118°11'0 0.0
2019-Feb-15 17:57N 33°45' W 118°11'0 0.0
2019-Feb-15 17:30N 33°45' W 118°11'0 0.0
2019-Feb-15 17:01N 33°45' W 118°11'0 0.0
2019-Feb-15 16:24N 33°45' W 118°11'0 0.0
2019-Feb-15 16:00N 33°45' W 118°11'0 0.0
2019-Feb-15 15:30N 33°45' W 118°11'0 0.0
2019-Feb-15 15:00N 33°45' W 118°11'0 0.0
2019-Feb-15 14:30N 33°45' W 118°11'0 0.0
2019-Feb-15 13:54N 33°45' W 118°11'0 0.3
2019-Feb-15 13:30N 33°45' W 118°11'1 2.1
2019-Feb-15 13:00N 33°44' W 118°11'5 9.7
2019-Feb-15 12:30N 33°39' W 118°10'4 7.8
2019-Feb-15 12:00N 33°35' W 118°09'510.5
2019-Feb-15 11:30N 33°30' W 118°07'611.3
2019-Feb-15 11:00N 33°25' W 118°05'610.7
2019-Feb-15 10:27N 33°19' W 118°03'510.7
2019-Feb-15 09:58N 33°15' W 118°01'511.4
2019-Feb-15 09:31N 33°10' W 117°58'611.5
2019-Feb-15 09:00N 33°04' W 117°56'510.3
2019-Feb-15 08:31N 32°59' W 117°55'4 8.0
2019-Feb-15 08:00N 33°01' W 117°59'4 8.9
2019-Feb-15 07:30N 33°05' W 118°02'510.4
2019-Feb-15 07:01N 33°09' W 118°06'611.6
2019-Feb-15 06:31N 33°14' W 118°10'611.7
2019-Feb-15 06:01N 33°19' W 118°11'611.8
2019-Feb-15 05:30N 33°25' W 118°12'5 9.6
2019-Feb-15 05:00N 33°30' W 118°14'3 5.6
2019-Feb-15 04:27N 33°28' W 118°17'3 7.3
2019-Feb-15 04:00N 33°25' W 118°15'6 7.4
2019-Feb-15 03:11N 33°20' W 118°13'1 7.6
2019-Feb-15 03:01N 33°19' W 118°11'4 8.4
2019-Feb-15 02:30N 33°17' W 118°07'4 8.0
2019-Feb-15 02:00N 33°16' W 118°02'4 7.8
2019-Feb-15 01:30N 33°14' W 117°58'4 7.9
2019-Feb-15 01:00N 33°13' W 117°53'4 7.6
2019-Feb-15 00:31N 33°11' W 117°49'4 7.1
2019-Feb-15 00:00N 33°08' W 117°47'4 7.6
2019-Feb-14 23:31N 33°05' W 117°46'4 8.6
2019-Feb-14 23:00N 33°01' W 117°44'4 8.7
2019-Feb-14 22:30N 32°56' W 117°42'4 8.7
2019-Feb-14 22:00N 32°52' W 117°41'4 8.5
2019-Feb-14 21:30N 32°48' W 117°40'2 4.1
2019-Feb-14 21:00N 32°47' W 117°37'1133.9
2019-Feb-14 21:00N 32°48' W 117°36'4 8.2 270 / 361013.2 5.4 15.015.016.0
2019-Feb-14 20:30N 32°52' W 117°38'4 7.9
2019-Feb-14 20:00N 32°55' W 117°39'4 7.6
2019-Feb-14 19:30N 32°59' W 117°41'4 7.2
2019-Feb-14 19:01N 33°02' W 117°42'4 7.3
2019-Feb-14 18:30N 33°06' W 117°44'2 5.0
2019-Feb-14 18:01N 33°05' W 117°46'4 8.4
2019-Feb-14 17:30N 33°00' W 117°45'4 8.3
2019-Feb-14 17:01N 32°56' W 117°44'3182.9
2019-Feb-14 17:00N 32°54' W 117°42'2 4.7 200 / 261013.2 5.4 15.015.016.0
2019-Feb-14 16:30N 32°52' W 117°44'4 8.9
2019-Feb-14 16:00N 32°48' W 117°43'4 8.9
2019-Feb-14 15:31N 32°43' W 117°42'5 8.9
2019-Feb-14 15:00N 32°39' W 117°41'4 8.8
2019-Feb-14 14:30N 32°35' W 117°40'4 8.9
2019-Feb-14 14:00N 32°30' W 117°39'5 9.2
2019-Feb-14 13:30N 32°26' W 117°39'2 4.4
2019-Feb-14 13:00N 32°24' W 117°37'3 7.0
2019-Feb-14 12:30N 32°27' W 117°38'3 7.0
2019-Feb-14 12:01N 32°30' W 117°39'3 6.8
2019-Feb-14 11:30N 32°34' W 117°41'2 4.5
2019-Feb-14 11:00N 32°35' W 117°43'4 7.7
2019-Feb-14 10:31N 32°31' W 117°42'5 9.1
2019-Feb-14 10:00N 32°27' W 117°39'4255.9
2019-Feb-14 10:00N 32°24' W 117°36'1 1.8 180 / 351014.2 5.4 15.013.315.0
2019-Feb-14 09:31N 32°23' W 117°37'4 8.4
2019-Feb-14 09:01N 32°20' W 117°35'4244.4
2019-Feb-14 09:00N 32°18' W 117°30'3 5.2 160 / 301014.2 5.4 15.013.316.0
2019-Feb-14 08:29N 32°16' W 117°32'8 8.1
2019-Feb-14 07:33N 32°10' W 117°26'814.3
2019-Feb-14 07:00N 32°06' W 117°18'   160 / 331019.310.8 15.013.316.0

Dump ship's entire track history